sensor_id;sensor_type;location;lat;lon;timestamp;pressure;altitude;pressure_sealevel;temperature;humidity
29045;BME280;16133;49.486;12.176;2022-12-07T00:01:18;97243.25;;;1.62;100.00
29045;BME280;16133;49.486;12.176;2022-12-07T00:03:46;97241.47;;;1.62;100.00
29045;BME280;16133;49.486;12.176;2022-12-07T00:06:13;97233.78;;;1.61;100.00
29045;BME280;16133;49.486;12.176;2022-12-07T00:08:39;97217.72;;;1.44;100.00
29045;BME280;16133;49.486;12.176;2022-12-07T00:11:15;97201.44;;;1.41;100.00
29045;BME280;16133;49.486;12.176;2022-12-07T00:13:41;97239.00;;;1.61;100.00
29045;BME280;16133;49.486;12.176;2022-12-07T00:16:09;97234.84;;;1.58;100.00
29045;BME280;16133;49.486;12.176;2022-12-07T00:18:36;97239.66;;;1.53;100.00
29045;BME280;16133;49.486;12.176;2022-12-07T00:21:22;97224.59;;;1.46;100.00
29045;BME280;16133;49.486;12.176;2022-12-07T00:23:49;97229.56;;;1.49;100.00
29045;BME280;16133;49.486;12.176;2022-12-07T00:26:20;97204.94;;;1.30;100.00
29045;BME280;16133;49.486;12.176;2022-12-07T00:28:55;97200.94;;;1.26;100.00
29045;BME280;16133;49.486;12.176;2022-12-07T00:31:23;97192.66;;;1.21;100.00
29045;BME280;16133;49.486;12.176;2022-12-07T00:33:48;97228.44;;;1.41;100.00
29045;BME280;16133;49.486;12.176;2022-12-07T00:36:17;97204.81;;;1.32;100.00
29045;BME280;16133;49.486;12.176;2022-12-07T00:38:43;97215.72;;;1.37;100.00
29045;BME280;16133;49.486;12.176;2022-12-07T00:41:14;97222.66;;;1.48;100.00
29045;BME280;16133;49.486;12.176;2022-12-07T00:43:41;97213.53;;;1.42;100.00
29045;BME280;16133;49.486;12.176;2022-12-07T00:46:07;97220.88;;;1.48;100.00
29045;BME280;16133;49.486;12.176;2022-12-07T00:48:32;97213.63;;;1.52;100.00
29045;BME280;16133;49.486;12.176;2022-12-07T00:50:58;97218.72;;;1.53;100.00
29045;BME280;16133;49.486;12.176;2022-12-07T00:53:24;97216.69;;;1.57;100.00
29045;BME280;16133;49.486;12.176;2022-12-07T00:55:50;97222.72;;;1.57;100.00
29045;BME280;16133;49.486;12.176;2022-12-07T00:58:15;97206.47;;;1.54;100.00
29045;BME280;16133;49.486;12.176;2022-12-07T01:00:42;97208.13;;;1.55;100.00
29045;BME280;16133;49.486;12.176;2022-12-07T01:03:10;97216.16;;;1.63;100.00
29045;BME280;16133;49.486;12.176;2022-12-07T01:05:36;97219.50;;;1.65;100.00
29045;BME280;16133;49.486;12.176;2022-12-07T01:08:01;97212.84;;;1.61;100.00
29045;BME280;16133;49.486;12.176;2022-12-07T01:10:27;97212.84;;;1.61;100.00
29045;BME280;16133;49.486;12.176;2022-12-07T01:12:52;97220.06;;;1.68;100.00
29045;BME280;16133;49.486;12.176;2022-12-07T01:15:18;97218.50;;;1.66;100.00
29045;BME280;16133;49.486;12.176;2022-12-07T01:17:44;97215.63;;;1.69;100.00
29045;BME280;16133;49.486;12.176;2022-12-07T01:20:09;97225.03;;;1.71;100.00
29045;BME280;16133;49.486;12.176;2022-12-07T01:22:39;97224.19;;;1.71;100.00
29045;BME280;16133;49.486;12.176;2022-12-07T01:25:06;97227.91;;;1.68;100.00
29045;BME280;16133;49.486;12.176;2022-12-07T01:27:33;97233.94;;;1.69;100.00
29045;BME280;16133;49.486;12.176;2022-12-07T01:29:59;97226.91;;;1.69;100.00
29045;BME280;16133;49.486;12.176;2022-12-07T01:32:24;97219.72;;;1.62;100.00
29045;BME280;16133;49.486;12.176;2022-12-07T01:34:50;97237.91;;;1.63;100.00
29045;BME280;16133;49.486;12.176;2022-12-07T01:37:15;97221.50;;;1.61;100.00
29045;BME280;16133;49.486;12.176;2022-12-07T01:39:40;97240.25;;;1.66;100.00
29045;BME280;16133;49.486;12.176;2022-12-07T01:42:09;97237.38;;;1.69;100.00
29045;BME280;16133;49.486;12.176;2022-12-07T01:47:39;97240.16;;;1.68;100.00
29045;BME280;16133;49.486;12.176;2022-12-07T01:50:04;97237.84;;;1.74;100.00
29045;BME280;16133;49.486;12.176;2022-12-07T01:52:31;97234.38;;;1.74;100.00
29045;BME280;16133;49.486;12.176;2022-12-07T01:55:01;97229.41;;;1.71;100.00
29045;BME280;16133;49.486;12.176;2022-12-07T01:57:29;97240.75;;;1.81;100.00
29045;BME280;16133;49.486;12.176;2022-12-07T01:59:56;97237.38;;;1.69;100.00
29045;BME280;16133;49.486;12.176;2022-12-07T02:02:36;97235.19;;;1.65;100.00
29045;BME280;16133;49.486;12.176;2022-12-07T02:05:04;97233.38;;;1.65;100.00
29045;BME280;16133;49.486;12.176;2022-12-07T02:07:31;97240.84;;;1.70;100.00
29045;BME280;16133;49.486;12.176;2022-12-07T02:09:57;97211.56;;;1.55;100.00
29045;BME280;16133;49.486;12.176;2022-12-07T02:12:23;97234.34;;;1.64;100.00
29045;BME280;16133;49.486;12.176;2022-12-07T02:14:50;97229.69;;;1.68;100.00
29045;BME280;16133;49.486;12.176;2022-12-07T02:17:22;97236.69;;;1.67;100.00
29045;BME280;16133;49.486;12.176;2022-12-07T02:31:48;97243.06;;;1.54;100.00
29045;BME280;16133;49.486;12.176;2022-12-07T02:34:20;97230.81;;;1.54;100.00
29045;BME280;16133;49.486;12.176;2022-12-07T02:36:52;97231.91;;;1.52;100.00
29045;BME280;16133;49.486;12.176;2022-12-07T02:39:43;97235.28;;;1.63;100.00
29045;BME280;16133;49.486;12.176;2022-12-07T02:42:17;97226.31;;;1.56;100.00
29045;BME280;16133;49.486;12.176;2022-12-07T02:44:45;97221.47;;;1.52;100.00
29045;BME280;16133;49.486;12.176;2022-12-07T02:47:14;97223.50;;;1.48;100.00
29045;BME280;16133;49.486;12.176;2022-12-07T02:49:41;97220.06;;;1.48;100.00
29045;BME280;16133;49.486;12.176;2022-12-07T02:52:07;97232.19;;;1.49;100.00
29045;BME280;16133;49.486;12.176;2022-12-07T02:54:33;97227.34;;;1.44;100.00
29045;BME280;16133;49.486;12.176;2022-12-07T03:00:09;97221.84;;;1.47;100.00
29045;BME280;16133;49.486;12.176;2022-12-07T03:13:09;97212.97;;;1.38;100.00
29045;BME280;16133;49.486;12.176;2022-12-07T03:15:44;97218.19;;;1.38;100.00
29045;BME280;16133;49.486;12.176;2022-12-07T03:18:13;97209.66;;;1.36;100.00
29045;BME280;16133;49.486;12.176;2022-12-07T03:20:40;97216.78;;;1.34;100.00
29045;BME280;16133;49.486;12.176;2022-12-07T03:23:08;97214.06;;;1.36;100.00
29045;BME280;16133;49.486;12.176;2022-12-07T03:25:40;97214.31;;;1.33;100.00
29045;BME280;16133;49.486;12.176;2022-12-07T03:28:08;97207.38;;;1.22;100.00
29045;BME280;16133;49.486;12.176;2022-12-07T03:33:13;97196.72;;;1.14;100.00
29045;BME280;16133;49.486;12.176;2022-12-07T03:35:51;97195.13;;;1.02;100.00
29045;BME280;16133;49.486;12.176;2022-12-07T03:38:25;97190.22;;;0.77;100.00
29045;BME280;16133;49.486;12.176;2022-12-07T03:43:24;97192.69;;;0.46;100.00
29045;BME280;16133;49.486;12.176;2022-12-07T03:48:33;97183.28;;;0.12;100.00
29045;BME280;16133;49.486;12.176;2022-12-07T03:51:51;97185.53;;;0.06;100.00
29045;BME280;16133;49.486;12.176;2022-12-07T03:54:10;97180.00;;;-0.12;100.00
29045;BME280;16133;49.486;12.176;2022-12-07T03:56:39;97174.31;;;-0.28;100.00
29045;BME280;16133;49.486;12.176;2022-12-07T03:59:05;97170.88;;;-0.40;100.00
29045;BME280;16133;49.486;12.176;2022-12-07T04:01:31;97169.31;;;-0.54;100.00
29045;BME280;16133;49.486;12.176;2022-12-07T04:03:57;97159.13;;;-0.68;100.00
29045;BME280;16133;49.486;12.176;2022-12-07T04:06:22;97149.63;;;-0.69;100.00
29045;BME280;16133;49.486;12.176;2022-12-07T04:08:48;97142.63;;;-0.79;100.00
29045;BME280;16133;49.486;12.176;2022-12-07T04:11:13;97133.75;;;-0.88;100.00
29045;BME280;16133;49.486;12.176;2022-12-07T04:13:38;97126.19;;;-0.80;100.00
29045;BME280;16133;49.486;12.176;2022-12-07T04:16:22;97115.03;;;-0.93;100.00
29045;BME280;16133;49.486;12.176;2022-12-07T04:18:48;97098.94;;;-0.98;100.00
29045;BME280;16133;49.486;12.176;2022-12-07T04:21:13;97097.16;;;-0.98;100.00
29045;BME280;16133;49.486;12.176;2022-12-07T04:23:38;97097.25;;;-1.10;100.00
29045;BME280;16133;49.486;12.176;2022-12-07T04:26:04;97094.06;;;-1.14;100.00
29045;BME280;16133;49.486;12.176;2022-12-07T04:28:29;97088.16;;;-1.16;100.00
29045;BME280;16133;49.486;12.176;2022-12-07T04:30:55;97075.47;;;-1.20;100.00
29045;BME280;16133;49.486;12.176;2022-12-07T04:33:20;97062.44;;;-1.20;100.00
29045;BME280;16133;49.486;12.176;2022-12-07T04:35:45;97061.03;;;-1.24;100.00
29045;BME280;16133;49.486;12.176;2022-12-07T04:38:11;97051.09;;;-1.30;100.00
29045;BME280;16133;49.486;12.176;2022-12-07T04:40:36;97056.41;;;-1.32;100.00
29045;BME280;16133;49.486;12.176;2022-12-07T04:43:01;97052.84;;;-1.42;100.00
29045;BME280;16133;49.486;12.176;2022-12-07T04:45:27;97054.59;;;-1.42;100.00
29045;BME280;16133;49.486;12.176;2022-12-07T04:47:52;97049.84;;;-1.49;100.00
29045;BME280;16133;49.486;12.176;2022-12-07T04:50:18;97062.16;;;-1.51;100.00
29045;BME280;16133;49.486;12.176;2022-12-07T04:52:43;97067.78;;;-1.57;100.00
29045;BME280;16133;49.486;12.176;2022-12-07T04:55:08;97050.84;;;-1.73;100.00
29045;BME280;16133;49.486;12.176;2022-12-07T04:57:34;97077.47;;;-1.70;100.00
29045;BME280;16133;49.486;12.176;2022-12-07T04:59:59;97079.78;;;-1.78;100.00
29045;BME280;16133;49.486;12.176;2022-12-07T05:02:24;97082.66;;;-1.94;100.00
29045;BME280;16133;49.486;12.176;2022-12-07T05:04:50;97098.34;;;-1.95;100.00
29045;BME280;16133;49.486;12.176;2022-12-07T05:07:15;97116.28;;;-2.03;100.00
29045;BME280;16133;49.486;12.176;2022-12-07T05:09:41;97106.72;;;-2.03;100.00
29045;BME280;16133;49.486;12.176;2022-12-07T05:12:06;97111.88;;;-1.90;100.00
29045;BME280;16133;49.486;12.176;2022-12-07T05:14:31;97098.69;;;-1.76;100.00
29045;BME280;16133;49.486;12.176;2022-12-07T05:16:57;97096.88;;;-1.63;100.00
29045;BME280;16133;49.486;12.176;2022-12-07T05:19:22;97082.94;;;-1.62;100.00
29045;BME280;16133;49.486;12.176;2022-12-07T05:21:47;97087.69;;;-1.45;100.00
29045;BME280;16133;49.486;12.176;2022-12-07T05:24:14;97086.56;;;-1.29;100.00
29045;BME280;16133;49.486;12.176;2022-12-07T05:26:41;97077.84;;;-1.17;100.00
29045;BME280;16133;49.486;12.176;2022-12-07T05:29:06;97066.41;;;-1.04;100.00
29045;BME280;16133;49.486;12.176;2022-12-07T05:31:32;97065.56;;;-0.93;100.00
29045;BME280;16133;49.486;12.176;2022-12-07T05:33:57;97056.09;;;-0.83;100.00
29045;BME280;16133;49.486;12.176;2022-12-07T05:36:23;97050.19;;;-0.74;100.00
29045;BME280;16133;49.486;12.176;2022-12-07T05:38:48;97045.22;;;-0.66;100.00
29045;BME280;16133;49.486;12.176;2022-12-07T05:41:16;97041.28;;;-0.60;100.00
29045;BME280;16133;49.486;12.176;2022-12-07T05:44:01;97038.44;;;-0.57;100.00
29045;BME280;16133;49.486;12.176;2022-12-07T05:46:26;97027.91;;;-0.56;100.00
29045;BME280;16133;49.486;12.176;2022-12-07T05:48:52;97026.97;;;-0.55;100.00
29045;BME280;16133;49.486;12.176;2022-12-07T05:51:17;97024.81;;;-0.50;100.00
29045;BME280;16133;49.486;12.176;2022-12-07T05:53:43;97026.94;;;-0.43;100.00
29045;BME280;16133;49.486;12.176;2022-12-07T05:56:09;97024.81;;;-0.38;100.00
29045;BME280;16133;49.486;12.176;2022-12-07T05:58:34;97034.00;;;-0.34;100.00
29045;BME280;16133;49.486;12.176;2022-12-07T06:01:18;97040.63;;;-0.30;100.00
29045;BME280;16133;49.486;12.176;2022-12-07T06:03:43;97036.84;;;-0.26;100.00
29045;BME280;16133;49.486;12.176;2022-12-07T06:06:10;97044.44;;;-0.23;100.00
29045;BME280;16133;49.486;12.176;2022-12-07T06:08:36;97038.50;;;-0.25;100.00
29045;BME280;16133;49.486;12.176;2022-12-07T06:11:01;97049.03;;;-0.16;100.00
29045;BME280;16133;49.486;12.176;2022-12-07T06:13:45;97049.63;;;-0.12;100.00
29045;BME280;16133;49.486;12.176;2022-12-07T06:16:10;97036.81;;;-0.15;100.00
29045;BME280;16133;49.486;12.176;2022-12-07T06:18:36;97050.53;;;-0.02;100.00
29045;BME280;16133;49.486;12.176;2022-12-07T06:21:01;97053.72;;;0.02;100.00
29045;BME280;16133;49.486;12.176;2022-12-07T06:23:26;97051.69;;;0.05;100.00
29045;BME280;16133;49.486;12.176;2022-12-07T06:25:52;97047.56;;;0.03;100.00
29045;BME280;16133;49.486;12.176;2022-12-07T06:28:17;97061.66;;;0.11;100.00
29045;BME280;16133;49.486;12.176;2022-12-07T06:30:42;97065.66;;;0.15;100.00
29045;BME280;16133;49.486;12.176;2022-12-07T06:33:08;97074.88;;;0.19;100.00
29045;BME280;16133;49.486;12.176;2022-12-07T06:35:33;97074.66;;;0.22;100.00
29045;BME280;16133;49.486;12.176;2022-12-07T06:37:59;97068.22;;;0.26;100.00
29045;BME280;16133;49.486;12.176;2022-12-07T06:40:24;97075.81;;;0.29;100.00
29045;BME280;16133;49.486;12.176;2022-12-07T06:42:49;97056.38;;;0.22;100.00
29045;BME280;16133;49.486;12.176;2022-12-07T06:45:15;97072.56;;;0.37;100.00
29045;BME280;16133;49.486;12.176;2022-12-07T06:47:40;97079.47;;;0.38;100.00
29045;BME280;16133;49.486;12.176;2022-12-07T06:50:06;97073.03;;;0.42;100.00
29045;BME280;16133;49.486;12.176;2022-12-07T06:52:33;97073.41;;;0.37;100.00
29045;BME280;16133;49.486;12.176;2022-12-07T06:54:58;97090.09;;;0.46;100.00
29045;BME280;16133;49.486;12.176;2022-12-07T06:57:24;97096.59;;;0.52;100.00
29045;BME280;16133;49.486;12.176;2022-12-07T06:59:50;97109.75;;;0.50;100.00
29045;BME280;16133;49.486;12.176;2022-12-07T07:02:15;97109.75;;;0.50;100.00
29045;BME280;16133;49.486;12.176;2022-12-07T07:04:40;97124.09;;;0.56;100.00
29045;BME280;16133;49.486;12.176;2022-12-07T07:07:06;97124.78;;;0.58;100.00
29045;BME280;16133;49.486;12.176;2022-12-07T07:09:31;97124.56;;;0.61;100.00
29045;BME280;16133;49.486;12.176;2022-12-07T07:11:57;97120.03;;;0.63;100.00
29045;BME280;16133;49.486;12.176;2022-12-07T07:14:22;97130.22;;;0.66;100.00
29045;BME280;16133;49.486;12.176;2022-12-07T07:16:47;97135.22;;;0.69;100.00
29045;BME280;16133;49.486;12.176;2022-12-07T07:19:13;97134.97;;;0.72;100.00
29045;BME280;16133;49.486;12.176;2022-12-07T07:21:38;97138.25;;;0.74;100.00
29045;BME280;16133;49.486;12.176;2022-12-07T07:24:04;97150.25;;;0.76;100.00
29045;BME280;16133;49.486;12.176;2022-12-07T07:26:29;97140.88;;;0.74;100.00
29045;BME280;16133;49.486;12.176;2022-12-07T07:28:55;97149.84;;;0.81;100.00
29045;BME280;16133;49.486;12.176;2022-12-07T07:31:20;97154.28;;;0.80;100.00
29045;BME280;16133;49.486;12.176;2022-12-07T07:33:46;97157.31;;;0.85;100.00
29045;BME280;16133;49.486;12.176;2022-12-07T07:36:12;97168.34;;;0.89;100.00
29045;BME280;16133;49.486;12.176;2022-12-07T07:38:37;97171.78;;;0.89;100.00
29045;BME280;16133;49.486;12.176;2022-12-07T07:41:02;97168.13;;;0.92;100.00
29045;BME280;16133;49.486;12.176;2022-12-07T07:43:28;97173.91;;;0.95;100.00
29045;BME280;16133;49.486;12.176;2022-12-07T07:45:53;97178.03;;;0.98;100.00
29045;BME280;16133;49.486;12.176;2022-12-07T07:48:19;97181.13;;;1.03;100.00
29045;BME280;16133;49.486;12.176;2022-12-07T07:50:44;97188.94;;;1.03;100.00
29045;BME280;16133;49.486;12.176;2022-12-07T07:53:09;97182.75;;;1.04;100.00
29045;BME280;16133;49.486;12.176;2022-12-07T07:55:35;97195.31;;;1.10;100.00
29045;BME280;16133;49.486;12.176;2022-12-07T07:58:00;97202.91;;;1.13;100.00
29045;BME280;16133;49.486;12.176;2022-12-07T08:00:25;97190.53;;;1.15;100.00
29045;BME280;16133;49.486;12.176;2022-12-07T08:02:51;97200.22;;;1.24;100.00
29045;BME280;16133;49.486;12.176;2022-12-07T08:05:16;97199.13;;;1.27;100.00
29045;BME280;16133;49.486;12.176;2022-12-07T08:07:42;97201.59;;;1.19;100.00
29045;BME280;16133;49.486;12.176;2022-12-07T08:10:10;97212.34;;;1.25;100.00
29045;BME280;16133;49.486;12.176;2022-12-07T08:12:41;97220.19;;;1.25;100.00
29045;BME280;16133;49.486;12.176;2022-12-07T08:15:27;97232.88;;;1.30;100.00
29045;BME280;16133;49.486;12.176;2022-12-07T08:17:52;97219.25;;;1.26;100.00
29045;BME280;16133;49.486;12.176;2022-12-07T08:20:18;97233.88;;;1.38;100.00
29045;BME280;16133;49.486;12.176;2022-12-07T08:22:43;97230.31;;;1.39;100.00
29045;BME280;16133;49.486;12.176;2022-12-07T08:25:09;97233.38;;;1.44;100.00
29045;BME280;16133;49.486;12.176;2022-12-07T08:27:34;97229.41;;;1.50;100.00
29045;BME280;16133;49.486;12.176;2022-12-07T08:29:59;97236.31;;;1.51;100.00
29045;BME280;16133;49.486;12.176;2022-12-07T08:32:25;97232.38;;;1.57;100.00
29045;BME280;16133;49.486;12.176;2022-12-07T08:34:51;97242.56;;;1.60;100.00
29045;BME280;16133;49.486;12.176;2022-12-07T08:37:17;97236.25;;;1.62;100.00
29045;BME280;16133;49.486;12.176;2022-12-07T08:39:42;97241.34;;;1.64;100.00
29045;BME280;16133;49.486;12.176;2022-12-07T08:42:07;97239.31;;;1.67;100.00
29045;BME280;16133;49.486;12.176;2022-12-07T08:44:33;97243.19;;;1.73;100.00
29045;BME280;16133;49.486;12.176;2022-12-07T08:47:02;97234.13;;;1.77;100.00
29045;BME280;16133;49.486;12.176;2022-12-07T08:49:39;97241.28;;;1.75;100.00
29045;BME280;16133;49.486;12.176;2022-12-07T08:52:05;97237.56;;;1.77;100.00
29045;BME280;16133;49.486;12.176;2022-12-07T08:54:33;97241.72;;;1.80;100.00
29045;BME280;16133;49.486;12.176;2022-12-07T08:57:00;97242.41;;;1.82;100.00
29045;BME280;16133;49.486;12.176;2022-12-07T08:59:26;97244.91;;;1.83;100.00
29045;BME280;16133;49.486;12.176;2022-12-07T09:01:52;97239.53;;;1.85;100.00
29045;BME280;16133;49.486;12.176;2022-12-07T09:04:18;97242.88;;;1.87;100.00
29045;BME280;16133;49.486;12.176;2022-12-07T09:06:43;97244.28;;;1.91;100.00
29045;BME280;16133;49.486;12.176;2022-12-07T09:09:09;97243.06;;;1.95;100.00
29045;BME280;16133;49.486;12.176;2022-12-07T09:11:36;97240.16;;;1.98;100.00
29045;BME280;16133;49.486;12.176;2022-12-07T09:14:01;97227.09;;;1.98;100.00
29045;BME280;16133;49.486;12.176;2022-12-07T09:16:26;97235.38;;;2.03;100.00
29045;BME280;16133;49.486;12.176;2022-12-07T09:18:52;97244.75;;;2.06;100.00
29045;BME280;16133;49.486;12.176;2022-12-07T09:21:17;97241.97;;;2.07;100.00
29045;BME280;16133;49.486;12.176;2022-12-07T09:23:43;97245.59;;;2.06;100.00
29045;BME280;16133;49.486;12.176;2022-12-07T09:26:08;97248.03;;;2.08;100.00
29045;BME280;16133;49.486;12.176;2022-12-07T09:28:34;97244.59;;;2.07;100.00
29045;BME280;16133;49.486;12.176;2022-12-07T09:30:59;97245.59;;;2.06;100.00
29045;BME280;16133;49.486;12.176;2022-12-07T09:33:25;97253.28;;;2.08;100.00
29045;BME280;16133;49.486;12.176;2022-12-07T09:35:51;97248.88;;;2.08;100.00
29045;BME280;16133;49.486;12.176;2022-12-07T09:38:18;97254.69;;;2.12;100.00
29045;BME280;16133;49.486;12.176;2022-12-07T09:40:44;97238.13;;;2.11;100.00
29045;BME280;16133;49.486;12.176;2022-12-07T09:43:28;97247.38;;;2.15;100.00
29045;BME280;16133;49.486;12.176;2022-12-07T09:45:55;97245.31;;;2.09;100.00
29045;BME280;16133;49.486;12.176;2022-12-07T09:48:31;97243.53;;;2.10;100.00
29045;BME280;16133;49.486;12.176;2022-12-07T09:50:59;97238.97;;;2.12;100.00
29045;BME280;16133;49.486;12.176;2022-12-07T09:53:33;97240.75;;;2.11;100.00
29045;BME280;16133;49.486;12.176;2022-12-07T09:55:59;97237.91;;;2.14;100.00
29045;BME280;16133;49.486;12.176;2022-12-07T09:58:28;97234.06;;;2.18;100.00
29045;BME280;16133;49.486;12.176;2022-12-07T10:03:31;97225.56;;;2.35;100.00
29045;BME280;16133;49.486;12.176;2022-12-07T10:05:57;97222.41;;;2.41;100.00
29045;BME280;16133;49.486;12.176;2022-12-07T10:08:22;97227.81;;;2.50;100.00
29045;BME280;16133;49.486;12.176;2022-12-07T10:10:55;97224.66;;;2.56;100.00
29045;BME280;16133;49.486;12.176;2022-12-07T10:16:04;97215.97;;;2.65;100.00
29045;BME280;16133;49.486;12.176;2022-12-07T10:18:38;97215.19;;;2.74;100.00
29045;BME280;16133;49.486;12.176;2022-12-07T10:21:16;97216.28;;;2.81;100.00
29045;BME280;16133;49.486;12.176;2022-12-07T10:23:59;97212.16;;;2.88;100.00
29045;BME280;16133;49.486;12.176;2022-12-07T10:28:54;97220.44;;;2.93;100.00
29045;BME280;16133;49.486;12.176;2022-12-07T10:31:22;97208.72;;;2.97;100.00
29045;BME280;16133;49.486;12.176;2022-12-07T10:33:59;97211.34;;;2.97;100.00
29045;BME280;16133;49.486;12.176;2022-12-07T10:36:33;97208.72;;;2.97;100.00
29045;BME280;16133;49.486;12.176;2022-12-07T10:39:01;97213.28;;;2.95;100.00
29045;BME280;16133;49.486;12.176;2022-12-07T10:41:27;97209.56;;;2.98;100.00
29045;BME280;16133;49.486;12.176;2022-12-07T10:43:54;97210.38;;;2.98;100.00
29045;BME280;16133;49.486;12.176;2022-12-07T10:46:34;97206.38;;;3.04;100.00
29045;BME280;16133;49.486;12.176;2022-12-07T10:51:52;97196.03;;;3.12;100.00
29045;BME280;16133;49.486;12.176;2022-12-07T10:54:53;97197.28;;;3.17;100.00
29045;BME280;16133;49.486;12.176;2022-12-07T11:00:01;97195.19;;;3.21;100.00
29045;BME280;16133;49.486;12.176;2022-12-07T11:08:13;97188.72;;;3.25;100.00
29045;BME280;16133;49.486;12.176;2022-12-07T11:10:58;97180.69;;;3.26;100.00
29045;BME280;16133;49.486;12.176;2022-12-07T11:13:40;97179.84;;;3.35;100.00
29045;BME280;16133;49.486;12.176;2022-12-07T11:21:30;97106.22;;;3.00;100.00
29045;BME280;16133;49.486;12.176;2022-12-07T11:32:45;97174.16;;;3.59;100.00
29045;BME280;16133;49.486;12.176;2022-12-07T11:35:24;97169.34;;;3.55;100.00
29045;BME280;16133;49.486;12.176;2022-12-07T11:38:17;97170.41;;;3.62;100.00
29045;BME280;16133;49.486;12.176;2022-12-07T11:40:45;97159.22;;;3.69;100.00
29045;BME280;16133;49.486;12.176;2022-12-07T11:45:52;97153.31;;;3.58;100.00
29045;BME280;16133;49.486;12.176;2022-12-07T11:48:28;97154.97;;;3.49;100.00
29045;BME280;16133;49.486;12.176;2022-12-07T11:50:57;97155.97;;;3.48;100.00
29045;BME280;16133;49.486;12.176;2022-12-07T11:53:35;97159.66;;;3.55;100.00
29045;BME280;16133;49.486;12.176;2022-12-07T12:01:26;97149.47;;;3.43;100.00
29045;BME280;16133;49.486;12.176;2022-12-07T12:03:58;97147.81;;;3.42;100.00
29045;BME280;16133;49.486;12.176;2022-12-07T12:06:26;97148.34;;;3.45;100.00
29045;BME280;16133;49.486;12.176;2022-12-07T12:09:01;97145.91;;;3.44;100.00
29045;BME280;16133;49.486;12.176;2022-12-07T12:19:35;97136.06;;;3.55;100.00
29045;BME280;16133;49.486;12.176;2022-12-07T12:22:14;97139.50;;;3.56;100.00
29045;BME280;16133;49.486;12.176;2022-12-07T12:24:43;97137.84;;;3.55;100.00
29045;BME280;16133;49.486;12.176;2022-12-07T12:27:22;97138.16;;;3.52;100.00
29045;BME280;16133;49.486;12.176;2022-12-07T12:29:54;97135.13;;;3.47;100.00
29045;BME280;16133;49.486;12.176;2022-12-07T12:32:22;97138.84;;;3.44;100.00
29045;BME280;16133;49.486;12.176;2022-12-07T12:35:20;97129.91;;;3.37;100.00
29045;BME280;16133;49.486;12.176;2022-12-07T12:37:47;97139.44;;;3.28;100.00
29045;BME280;16133;49.486;12.176;2022-12-07T12:45:32;97129.91;;;3.27;100.00
29045;BME280;16133;49.486;12.176;2022-12-07T12:50:25;97134.50;;;3.25;100.00
29045;BME280;16133;49.486;12.176;2022-12-07T12:53:12;97128.25;;;3.26;100.00
29045;BME280;16133;49.486;12.176;2022-12-07T13:01:29;97125.47;;;3.37;100.00
29045;BME280;16133;49.486;12.176;2022-12-07T13:03:34;97129.31;;;3.43;100.00
29045;BME280;16133;49.486;12.176;2022-12-07T13:08:45;97129.06;;;3.36;100.00
29045;BME280;16133;49.486;12.176;2022-12-07T13:11:32;97125.75;;;3.34;100.00
29045;BME280;16133;49.486;12.176;2022-12-07T13:17:03;97119.44;;;3.27;100.00
29045;BME280;16133;49.486;12.176;2022-12-07T13:22:47;97121.41;;;3.06;100.00
29045;BME280;16133;49.486;12.176;2022-12-07T13:27:44;97115.19;;;3.07;100.00
29045;BME280;16133;49.486;12.176;2022-12-07T13:30:18;97114.09;;;3.10;100.00
29045;BME280;16133;49.486;12.176;2022-12-07T13:32:57;97114.09;;;3.10;100.00
29045;BME280;16133;49.486;12.176;2022-12-07T13:35:30;97111.72;;;3.07;100.00
29045;BME280;16133;49.486;12.176;2022-12-07T13:37:56;97107.88;;;3.01;100.00
29045;BME280;16133;49.486;12.176;2022-12-07T13:40:22;97107.31;;;3.07;100.00
29045;BME280;16133;49.486;12.176;2022-12-07T13:43:01;97101.81;;;3.10;100.00
29045;BME280;16133;49.486;12.176;2022-12-07T13:45:27;97115.34;;;3.06;100.00
29045;BME280;16133;49.486;12.176;2022-12-07T13:50:55;97113.94;;;3.11;100.00
29045;BME280;16133;49.486;12.176;2022-12-07T13:53:21;97113.53;;;3.06;100.00
29045;BME280;16133;49.486;12.176;2022-12-07T13:55:47;97108.97;;;3.08;100.00
29045;BME280;16133;49.486;12.176;2022-12-07T13:58:13;97110.50;;;3.01;100.00
29045;BME280;16133;49.486;12.176;2022-12-07T14:00:40;97112.31;;;3.01;100.00
29045;BME280;16133;49.486;12.176;2022-12-07T14:05:38;97117.53;;;3.01;100.00
29045;BME280;16133;49.486;12.176;2022-12-07T14:08:20;97112.31;;;3.01;100.00
29045;BME280;16133;49.486;12.176;2022-12-07T14:14:00;97121.41;;;2.97;100.00
29045;BME280;16133;49.486;12.176;2022-12-07T14:16:36;97118.94;;;2.95;100.00
29045;BME280;16133;49.486;12.176;2022-12-07T14:19:05;97114.66;;;2.94;100.00
29045;BME280;16133;49.486;12.176;2022-12-07T14:21:34;97116.44;;;2.94;100.00
29045;BME280;16133;49.486;12.176;2022-12-07T14:24:18;97096.72;;;2.89;100.00
29045;BME280;16133;49.486;12.176;2022-12-07T14:26:46;97102.94;;;2.88;100.00
29045;BME280;16133;49.486;12.176;2022-12-07T14:29:19;97108.75;;;2.82;100.00
29045;BME280;16133;49.486;12.176;2022-12-07T14:31:45;97100.34;;;2.79;100.00
29045;BME280;16133;49.486;12.176;2022-12-07T14:34:14;97102.25;;;2.77;100.00
29045;BME280;16133;49.486;12.176;2022-12-07T14:36:39;97092.75;;;2.66;100.00
29045;BME280;16133;49.486;12.176;2022-12-07T14:39:04;97094.25;;;2.69;100.00
29045;BME280;16133;49.486;12.176;2022-12-07T14:41:30;97092.88;;;2.65;100.00
29045;BME280;16133;49.486;12.176;2022-12-07T14:44:14;97099.09;;;2.64;100.00
29045;BME280;16133;49.486;12.176;2022-12-07T14:46:39;97088.19;;;2.59;100.00
29045;BME280;16133;49.486;12.176;2022-12-07T14:49:04;97090.16;;;2.57;100.00
29045;BME280;16133;49.486;12.176;2022-12-07T14:51:30;97085.88;;;2.56;100.00
29045;BME280;16133;49.486;12.176;2022-12-07T14:53:56;97081.16;;;2.50;100.00